createdAt,value
2022-12-01T00:00:45.658Z,26.20
2022-12-01T00:01:45.691Z,26.89
2022-12-01T00:02:45.612Z,25.29
2022-12-01T00:03:45.446Z,27.00
2022-12-01T00:04:45.381Z,25.70
2022-12-01T00:05:45.316Z,25.79
2022-12-01T00:06:45.250Z,27.00
2022-12-01T00:07:45.244Z,26.50
2022-12-01T00:08:45.116Z,26.50
2022-12-01T00:09:45.046Z,27.20
2022-12-01T00:10:44.976Z,27.89
2022-12-01T00:11:44.905Z,25.00
2022-12-01T00:12:44.865Z,26.70
2022-12-01T00:13:44.769Z,26.29
2022-12-01T00:14:44.704Z,27.39
2022-12-01T00:15:44.639Z,26.50
2022-12-01T00:16:44.868Z,26.00
2022-12-01T00:17:44.512Z,27.60
2022-12-01T00:18:44.450Z,26.60
2022-12-01T00:19:44.387Z,27.10
2022-12-01T00:20:44.325Z,27.20
2022-12-01T00:21:44.255Z,27.79
2022-12-01T00:22:44.187Z,28.29
2022-12-01T00:23:44.121Z,27.89
2022-12-01T00:24:44.053Z,28.60
2022-12-01T00:25:43.985Z,28.10
2022-12-01T00:26:43.921Z,28.00
2022-12-01T00:27:43.864Z,28.39
2022-12-01T00:28:43.830Z,27.89
2022-12-01T00:29:43.740Z,27.70
2022-12-01T00:30:43.672Z,27.50
2022-12-01T00:31:43.680Z,27.79
2022-12-01T00:32:43.538Z,28.70
2022-12-01T00:33:43.466Z,28.00
2022-12-01T00:34:43.398Z,27.79
2022-12-01T00:35:43.326Z,28.79
2022-12-01T00:36:43.259Z,26.79
2022-12-01T00:37:43.185Z,26.60
2022-12-01T00:38:43.110Z,28.39
2022-12-01T00:39:43.040Z,27.00
2022-12-01T00:40:42.974Z,27.20
2022-12-01T00:41:42.905Z,26.70
2022-12-01T00:42:42.836Z,28.00
2022-12-01T00:43:42.766Z,28.29
2022-12-01T00:44:42.724Z,26.89
2022-12-01T00:45:42.658Z,27.89
2022-12-01T00:46:42.554Z,28.39
2022-12-01T00:47:42.485Z,27.70
2022-12-01T00:48:42.415Z,28.29
2022-12-01T00:49:42.350Z,27.70
2022-12-01T00:50:42.285Z,27.70
2022-12-01T00:51:42.219Z,27.50
2022-12-01T00:52:42.153Z,27.10
2022-12-01T00:53:42.086Z,27.10
2022-12-01T00:54:42.016Z,28.50
2022-12-01T00:55:41.949Z,26.39
2022-12-01T00:56:41.884Z,28.10
2022-12-01T00:57:41.816Z,28.60
2022-12-01T00:58:41.756Z,27.10
2022-12-01T00:59:41.694Z,27.50
2022-12-01T01:00:41.661Z,27.10
2022-12-01T01:01:41.649Z,27.50
2022-12-01T01:02:41.552Z,28.29
2022-12-01T01:03:41.443Z,26.50
2022-12-01T01:04:41.382Z,26.50
2022-12-01T01:05:41.320Z,26.20
2022-12-01T01:06:41.251Z,28.20
2022-12-01T01:07:41.289Z,27.39
2022-12-01T01:08:41.113Z,25.89
2022-12-01T01:09:41.046Z,25.60
2022-12-01T01:10:40.976Z,26.00
2022-12-01T01:11:40.908Z,25.89
2022-12-01T01:12:40.841Z,24.89
2022-12-01T01:13:40.771Z,27.10
2022-12-01T01:14:40.702Z,25.20
2022-12-01T01:15:40.635Z,23.79
2022-12-01T01:16:40.670Z,23.00
2022-12-01T01:17:40.501Z,23.79
2022-12-01T01:18:40.436Z,24.29
2022-12-01T01:19:40.365Z,23.70
2022-12-01T01:20:40.309Z,26.20
2022-12-01T01:21:40.233Z,24.60
2022-12-01T01:22:40.165Z,23.79
2022-12-01T01:23:40.100Z,23.20
2022-12-01T01:24:40.032Z,23.60
2022-12-01T01:25:39.962Z,25.00
2022-12-01T01:26:39.898Z,22.89
2022-12-01T01:27:39.843Z,23.79
2022-12-01T01:28:39.779Z,21.89
2022-12-01T01:29:39.715Z,23.10
2022-12-01T01:30:39.722Z,22.89
2022-12-01T01:31:39.585Z,23.60
2022-12-01T01:32:39.542Z,23.29
2022-12-01T01:33:39.469Z,21.50
2022-12-01T01:34:39.390Z,21.79
2022-12-01T01:35:39.324Z,22.20
2022-12-01T01:36:39.262Z,22.10
2022-12-01T01:37:39.211Z,21.89
2022-12-01T01:38:39.146Z,21.20
2022-12-01T01:39:39.085Z,21.50
2022-12-01T01:40:39.027Z,21.79
2022-12-01T01:41:38.963Z,22.39
2022-12-01T01:42:38.900Z,20.60
2022-12-01T01:43:38.835Z,21.79
2022-12-01T01:44:38.768Z,21.79
2022-12-01T01:45:38.760Z,21.70
2022-12-01T01:46:38.646Z,22.29
2022-12-01T01:47:38.580Z,21.39
2022-12-01T01:48:38.536Z,22.60
2022-12-01T01:49:38.452Z,22.79
2022-12-01T01:50:38.387Z,23.20
2022-12-01T01:51:38.337Z,23.10
2022-12-01T01:52:38.265Z,22.20
2022-12-01T01:53:38.201Z,22.39
2022-12-01T01:54:38.136Z,22.70
2022-12-01T01:55:38.075Z,23.39
2022-12-01T01:56:38.011Z,22.89
2022-12-01T01:57:37.952Z,23.60
2022-12-01T01:58:37.892Z,24.10
2022-12-01T01:59:37.827Z,24.20
2022-12-01T02:00:37.769Z,22.79
2022-12-01T02:01:37.736Z,24.29
2022-12-01T02:02:37.677Z,24.89
2022-12-01T02:03:37.574Z,24.60
2022-12-01T02:04:37.537Z,24.10
2022-12-01T02:05:37.449Z,25.20
2022-12-01T02:06:37.385Z,24.10
2022-12-01T02:07:37.363Z,25.00
2022-12-01T02:08:37.264Z,23.79
2022-12-01T02:09:37.198Z,23.79
2022-12-01T02:10:37.140Z,24.89
2022-12-01T02:11:37.083Z,24.29
2022-12-01T02:12:37.023Z,23.20
2022-12-01T02:13:36.959Z,25.50
2022-12-01T02:14:36.902Z,24.20
2022-12-01T02:15:36.838Z,24.10
2022-12-01T02:16:36.845Z,22.79
2022-12-01T02:17:41.582Z,23.29
2022-12-01T02:18:36.661Z,23.70
2022-12-01T02:19:36.601Z,23.39
2022-12-01T02:20:36.573Z,23.20
2022-12-01T02:21:36.488Z,22.60
2022-12-01T02:22:36.425Z,22.00
2022-12-01T02:23:36.367Z,22.10
2022-12-01T02:24:36.308Z,22.10
2022-12-01T02:25:36.254Z,21.70
2022-12-01T02:26:36.199Z,22.00
2022-12-01T02:27:36.134Z,20.79
2022-12-01T02:28:36.075Z,20.20
2022-12-01T02:29:36.018Z,21.79
2022-12-01T02:30:36.013Z,19.79
2022-12-01T02:31:35.892Z,20.50
2022-12-01T02:32:35.826Z,19.39
2022-12-01T02:33:35.763Z,21.29
2022-12-01T02:34:35.704Z,21.10
2022-12-01T02:35:35.651Z,20.10
2022-12-01T02:36:35.605Z,19.50
2022-12-01T02:37:35.520Z,19.60
2022-12-01T02:38:35.451Z,19.79
2022-12-01T02:39:35.383Z,18.20
2022-12-01T02:40:35.314Z,19.39
2022-12-01T02:41:35.252Z,19.50
2022-12-01T02:42:35.188Z,19.39
2022-12-01T02:43:35.126Z,18.89
2022-12-01T02:44:35.061Z,18.60
2022-12-01T02:45:34.994Z,18.70
2022-12-01T02:46:35.005Z,18.89
2022-12-01T02:47:34.857Z,17.60
2022-12-01T02:48:34.785Z,19.00
2022-12-01T02:49:34.722Z,18.29
2022-12-01T02:50:34.659Z,18.00
2022-12-01T02:51:34.589Z,19.50
2022-12-01T02:52:34.550Z,19.10
2022-12-01T02:53:34.464Z,18.29
2022-12-01T02:54:34.394Z,18.10
2022-12-01T02:55:34.328Z,18.20
2022-12-01T02:56:34.262Z,19.00
2022-12-01T02:57:34.192Z,18.89
2022-12-01T02:58:34.129Z,18.50
2022-12-01T02:59:34.064Z,17.89
2022-12-01T03:00:34.001Z,17.79
2022-12-01T03:01:34.064Z,18.70
2022-12-01T03:02:33.937Z,18.70
2022-12-01T03:03:33.820Z,18.89
2022-12-01T03:04:33.755Z,19.50
2022-12-01T03:05:33.691Z,18.79
2022-12-01T03:06:33.631Z,18.79
2022-12-01T03:07:33.609Z,19.60
2022-12-01T03:08:33.536Z,19.29
2022-12-01T03:09:33.447Z,18.79
2022-12-01T03:10:33.379Z,19.79
2022-12-01T03:11:33.317Z,18.70
2022-12-01T03:12:33.257Z,18.60
2022-12-01T03:13:33.195Z,19.20
2022-12-01T03:14:33.138Z,19.39
2022-12-01T03:15:33.075Z,19.20
2022-12-01T03:16:33.046Z,20.00
2022-12-01T03:17:32.947Z,19.79
2022-12-01T03:18:32.884Z,20.10
2022-12-01T03:19:32.819Z,19.00
2022-12-01T03:20:32.762Z,20.00
2022-12-01T03:21:32.698Z,20.10
2022-12-01T03:22:32.636Z,20.00
2022-12-01T03:23:32.573Z,20.20
2022-12-01T03:24:32.569Z,19.70
2022-12-01T03:25:32.456Z,20.20
2022-12-01T03:26:32.401Z,19.60
2022-12-01T03:27:32.332Z,19.50
2022-12-01T03:28:32.282Z,19.70
2022-12-01T03:29:32.217Z,20.39
2022-12-01T03:30:32.174Z,20.00
2022-12-01T03:31:32.203Z,20.89
2022-12-01T03:32:32.043Z,20.00
2022-12-01T03:33:31.986Z,19.89
2022-12-01T03:34:31.928Z,20.29
2022-12-01T03:35:31.857Z,20.79
2022-12-01T03:36:31.796Z,21.50
2022-12-01T03:37:31.734Z,21.50
2022-12-01T03:38:31.668Z,21.20
2022-12-01T03:39:31.604Z,21.00
2022-12-01T03:40:31.572Z,20.89
2022-12-01T03:41:31.475Z,22.20
2022-12-01T03:42:31.411Z,21.39
2022-12-01T03:43:31.342Z,20.79
2022-12-01T03:44:31.275Z,21.39
2022-12-01T03:45:31.212Z,22.00
2022-12-01T03:46:31.174Z,21.10
2022-12-01T03:47:31.080Z,21.10
2022-12-01T03:48:31.012Z,20.60
2022-12-01T03:49:30.943Z,21.29
2022-12-01T03:50:30.879Z,20.89
2022-12-01T03:51:30.815Z,22.89
2022-12-01T03:52:30.749Z,22.20
2022-12-01T03:53:30.693Z,21.20
2022-12-01T03:54:30.624Z,21.70
2022-12-01T03:55:30.555Z,21.10
2022-12-01T03:56:30.530Z,21.50
2022-12-01T03:57:30.429Z,22.39
2022-12-01T03:58:30.366Z,21.60
2022-12-01T03:59:30.300Z,21.79
2022-12-01T04:00:30.241Z,21.39
2022-12-01T04:01:30.249Z,21.10
2022-12-01T04:02:30.180Z,21.60
2022-12-01T04:03:30.070Z,22.00
2022-12-01T04:04:30.011Z,22.60
2022-12-01T04:05:29.949Z,22.39
2022-12-01T04:06:29.887Z,22.20
2022-12-01T04:07:29.868Z,23.10
2022-12-01T04:08:29.753Z,22.10
2022-12-01T04:09:29.691Z,22.50
2022-12-01T04:10:29.626Z,22.79
2022-12-01T04:11:32.677Z,23.39
2022-12-01T04:12:29.518Z,23.00
2022-12-01T04:13:29.429Z,22.70
2022-12-01T04:14:29.365Z,23.10
2022-12-01T04:15:29.305Z,23.00
2022-12-01T04:16:29.357Z,23.00
2022-12-01T04:17:29.179Z,23.10
2022-12-01T04:18:29.113Z,23.39
2022-12-01T04:19:29.048Z,23.00
2022-12-01T04:20:28.989Z,24.39
2022-12-01T04:21:28.920Z,24.39
2022-12-01T04:22:28.856Z,24.29
2022-12-01T04:23:28.795Z,24.79
2022-12-01T04:24:28.734Z,25.00
2022-12-01T04:25:28.675Z,25.10
2022-12-01T04:26:28.617Z,23.89
2022-12-01T04:27:28.568Z,25.00
2022-12-01T04:28:28.531Z,24.70
2022-12-01T04:29:28.442Z,25.39
2022-12-01T04:30:28.394Z,25.70
2022-12-01T04:31:28.420Z,26.60
2022-12-01T04:32:28.254Z,24.39
2022-12-01T04:33:28.192Z,24.29
2022-12-01T04:34:28.132Z,26.39
2022-12-01T04:35:28.068Z,26.89
2022-12-01T04:36:28.006Z,25.89
2022-12-01T04:37:27.945Z,27.50
2022-12-01T04:38:30.779Z,25.79
2022-12-01T04:39:27.827Z,26.10
2022-12-01T04:40:27.767Z,26.60
2022-12-01T04:41:27.709Z,25.89
2022-12-01T04:42:27.646Z,25.60
2022-12-01T04:43:27.592Z,35.79
2022-12-01T04:44:33.007Z,27.00
2022-12-01T04:45:28.486Z,26.79
2022-12-01T04:46:27.467Z,27.79
2022-12-01T04:47:27.355Z,27.89
2022-12-01T04:48:27.292Z,27.70
2022-12-01T04:49:27.236Z,26.79
2022-12-01T04:50:27.182Z,27.20
2022-12-01T04:51:27.113Z,27.70
2022-12-01T04:52:32.050Z,27.29
2022-12-01T04:53:28.008Z,30.50
2022-12-01T04:54:26.938Z,28.70
2022-12-01T04:55:26.877Z,27.39
2022-12-01T04:56:26.814Z,26.50
2022-12-01T04:57:26.753Z,28.60
2022-12-01T04:58:26.691Z,26.89
2022-12-01T04:59:26.628Z,26.89
2022-12-01T05:00:26.665Z,29.10
2022-12-01T05:01:26.644Z,27.89
2022-12-01T05:02:26.553Z,27.79
2022-12-01T05:03:26.393Z,27.50
2022-12-01T05:04:26.326Z,27.60
2022-12-01T05:05:26.265Z,28.00
2022-12-01T05:06:26.200Z,27.79
2022-12-01T05:07:26.218Z,27.20
2022-12-01T05:08:26.074Z,29.10
2022-12-01T05:09:26.020Z,29.00
2022-12-01T05:10:25.960Z,27.89
2022-12-01T05:11:25.895Z,28.89
2022-12-01T05:12:25.835Z,28.39
2022-12-01T05:13:25.758Z,29.60
2022-12-01T05:14:25.697Z,28.29
2022-12-01T05:15:25.636Z,30.50
2022-12-01T05:16:25.739Z,30.20
2022-12-01T05:17:25.506Z,30.00
2022-12-01T05:18:25.522Z,30.29
2022-12-01T05:19:25.377Z,30.79
2022-12-01T05:20:25.319Z,30.89
2022-12-01T05:21:25.265Z,30.89
2022-12-01T05:22:56.875Z,31.00
2022-12-01T05:23:26.158Z,31.50
2022-12-01T05:24:25.085Z,32.29
2022-12-01T05:25:25.029Z,30.70
2022-12-01T05:26:24.975Z,31.20
2022-12-01T05:27:24.923Z,32.70
2022-12-01T05:28:24.866Z,47.09
2022-12-01T05:29:24.808Z,55.59
2022-12-01T05:30:28.547Z,32.20
2022-12-01T05:31:24.736Z,33.59
2022-12-01T05:32:24.669Z,33.20
2022-12-01T05:33:24.580Z,48.70
2022-12-01T05:34:24.525Z,34.50
2022-12-01T05:35:24.471Z,34.59
2022-12-01T05:36:24.412Z,34.09
2022-12-01T05:37:24.356Z,32.40
2022-12-01T05:38:24.301Z,32.90
2022-12-01T05:39:24.251Z,32.50
2022-12-01T05:40:24.194Z,33.70
2022-12-01T05:41:24.134Z,33.29
2022-12-01T05:42:24.079Z,33.09
2022-12-01T05:43:29.083Z,33.20
2022-12-01T05:44:23.974Z,32.79
2022-12-01T05:45:23.929Z,34.50
2022-12-01T05:46:23.958Z,33.90
2022-12-01T05:47:23.821Z,32.00
2022-12-01T05:48:23.806Z,36.40
2022-12-01T05:49:23.724Z,32.20
2022-12-01T05:50:23.664Z,33.00
2022-12-01T05:51:23.611Z,32.00
2022-12-01T05:52:23.555Z,30.89
2022-12-01T05:53:23.505Z,31.20
2022-12-01T05:54:23.445Z,29.60
2022-12-01T05:55:23.390Z,30.50
2022-12-01T05:56:23.342Z,30.70
2022-12-01T05:57:23.285Z,30.20
2022-12-01T05:58:23.232Z,31.39
2022-12-01T05:59:23.181Z,31.89
2022-12-01T06:00:23.121Z,34.00
2022-12-01T06:01:23.075Z,34.20
2022-12-01T06:02:23.057Z,33.29
2022-12-01T06:03:22.952Z,32.79
2022-12-01T06:04:22.965Z,32.40
2022-12-01T06:05:22.840Z,33.90
2022-12-01T06:06:22.788Z,32.00
2022-12-01T06:07:22.749Z,32.09
2022-12-01T06:08:22.673Z,32.59
2022-12-01T06:09:22.624Z,32.40
2022-12-01T06:10:22.571Z,33.59
2022-12-01T06:11:22.517Z,30.79
2022-12-01T06:12:22.464Z,31.00
2022-12-01T06:13:22.411Z,31.10
2022-12-01T06:14:22.352Z,31.79
2022-12-01T06:15:22.291Z,43.20
2022-12-01T06:16:22.304Z,32.20
2022-12-01T06:17:22.171Z,30.50
2022-12-01T06:18:22.113Z,31.60
2022-12-01T06:19:22.056Z,31.70
2022-12-01T06:20:22.024Z,30.89
2022-12-01T06:21:21.932Z,31.50
2022-12-01T06:22:21.873Z,31.10
2022-12-01T06:23:25.210Z,30.10
2022-12-01T06:24:21.771Z,29.89
2022-12-01T06:25:21.719Z,31.70
2022-12-01T06:26:21.664Z,30.20
2022-12-01T06:27:21.604Z,29.89
2022-12-01T06:28:21.547Z,31.70
2022-12-01T06:29:21.492Z,30.10
2022-12-01T06:30:21.434Z,29.89
2022-12-01T06:31:21.442Z,28.79
2022-12-01T06:32:21.325Z,28.70
2022-12-01T06:33:21.267Z,29.10
2022-12-01T06:34:21.205Z,28.50
2022-12-01T06:35:21.152Z,28.00
2022-12-01T06:36:21.124Z,26.89
2022-12-01T06:37:21.070Z,26.20
2022-12-01T06:38:20.996Z,25.70
2022-12-01T06:39:20.941Z,24.60
2022-12-01T06:40:20.886Z,23.70
2022-12-01T06:41:20.832Z,25.29
2022-12-01T06:42:20.783Z,22.29
2022-12-01T06:43:20.723Z,23.79
2022-12-01T06:44:20.673Z,23.39
2022-12-01T06:45:20.615Z,22.50
2022-12-01T06:46:20.588Z,21.10
2022-12-01T06:47:20.506Z,22.20
2022-12-01T06:48:20.467Z,21.60
2022-12-01T06:49:20.394Z,22.60
2022-12-01T06:50:20.339Z,21.00
2022-12-01T06:51:20.297Z,20.29
2022-12-01T06:52:20.254Z,20.70
2022-12-01T06:53:20.176Z,19.20
2022-12-01T06:54:20.121Z,20.20
2022-12-01T06:55:20.064Z,19.10
2022-12-01T06:56:20.002Z,19.50
2022-12-01T06:57:19.952Z,18.39
2022-12-01T06:58:19.895Z,18.70
2022-12-01T06:59:19.854Z,18.89
2022-12-01T07:00:19.794Z,17.79
2022-12-01T07:01:19.822Z,18.29
2022-12-01T07:02:19.736Z,17.39
2022-12-01T07:03:19.642Z,18.10
2022-12-01T07:04:19.584Z,18.29
2022-12-01T07:05:19.532Z,17.50
2022-12-01T07:06:19.472Z,17.79
2022-12-01T07:07:19.598Z,17.39
2022-12-01T07:08:19.388Z,17.29
2022-12-01T07:09:19.305Z,16.10
2022-12-01T07:10:19.250Z,16.20
2022-12-01T07:11:19.199Z,17.39
2022-12-01T07:12:19.148Z,16.50
2022-12-01T07:13:19.107Z,15.80
2022-12-01T07:14:19.036Z,16.20
2022-12-01T07:15:18.976Z,15.60
2022-12-01T07:16:18.975Z,15.39
2022-12-01T07:17:18.857Z,14.69
2022-12-01T07:18:18.802Z,15.69
2022-12-01T07:19:18.744Z,15.60
2022-12-01T07:20:18.686Z,16.50
2022-12-01T07:21:18.624Z,15.69
2022-12-01T07:22:18.570Z,15.50
2022-12-01T07:23:18.506Z,14.89
2022-12-01T07:24:18.559Z,15.30
2022-12-01T07:25:18.383Z,16.20
2022-12-01T07:26:18.322Z,15.80
2022-12-01T07:27:18.264Z,16.79
2022-12-01T07:28:18.197Z,15.89
2022-12-01T07:29:18.136Z,15.80
2022-12-01T07:30:18.072Z,15.80
2022-12-01T07:31:18.143Z,16.50
2022-12-01T07:32:17.952Z,15.39
2022-12-01T07:33:17.890Z,15.50
2022-12-01T07:34:17.830Z,14.50
2022-12-01T07:35:17.778Z,15.39
2022-12-01T07:36:17.716Z,15.10
2022-12-01T07:37:17.654Z,15.89
2022-12-01T07:38:21.896Z,15.89
2022-12-01T07:39:17.535Z,16.00
2022-12-01T07:40:17.502Z,15.39
2022-12-01T07:41:17.418Z,16.00
2022-12-01T07:42:17.359Z,17.50
2022-12-01T07:43:17.304Z,15.89
2022-12-01T07:44:17.241Z,15.10
2022-12-01T07:45:17.182Z,14.50
2022-12-01T07:46:22.252Z,14.69
2022-12-01T07:47:17.057Z,15.80
2022-12-01T07:48:16.997Z,15.30
2022-12-01T07:49:16.940Z,16.00
2022-12-01T07:50:16.884Z,15.60
2022-12-01T07:51:16.866Z,16.20
2022-12-01T07:52:16.762Z,14.69
2022-12-01T07:53:16.705Z,15.89
2022-12-01T07:54:16.646Z,15.39
2022-12-01T07:55:16.595Z,13.89
2022-12-01T07:56:16.567Z,15.10
2022-12-01T07:57:16.481Z,14.89
2022-12-01T07:58:16.425Z,15.60
2022-12-01T07:59:16.368Z,15.80
2022-12-01T08:00:16.308Z,14.60
2022-12-01T08:01:16.355Z,15.30
2022-12-01T08:02:16.352Z,14.19
2022-12-01T08:03:16.294Z,15.19
2022-12-01T08:04:16.067Z,14.39
2022-12-01T08:05:16.012Z,14.60
2022-12-01T08:06:15.944Z,15.00
2022-12-01T08:07:15.881Z,14.69
2022-12-01T08:08:15.924Z,14.60
2022-12-01T08:09:15.760Z,14.60
2022-12-01T08:10:15.700Z,14.10
2022-12-01T08:11:15.642Z,14.80
2022-12-01T08:12:15.605Z,14.30
2022-12-01T08:13:17.467Z,14.50
2022-12-01T08:14:15.465Z,14.50
2022-12-01T08:15:15.404Z,15.10
2022-12-01T08:16:15.403Z,15.10
2022-12-01T08:17:15.282Z,14.50
2022-12-01T08:18:15.220Z,14.89
2022-12-01T08:19:15.163Z,14.19
2022-12-01T08:20:18.487Z,14.60
2022-12-01T08:21:16.058Z,14.39
2022-12-01T08:22:14.979Z,15.00
2022-12-01T08:23:14.921Z,14.50
2022-12-01T08:24:14.862Z,15.89
2022-12-01T08:25:14.796Z,14.80
2022-12-01T08:26:14.736Z,15.19
2022-12-01T08:27:14.677Z,15.80
2022-12-01T08:28:14.638Z,15.39
2022-12-01T08:29:19.763Z,15.19
2022-12-01T08:30:14.485Z,15.39
2022-12-01T08:31:14.500Z,16.00
2022-12-01T08:32:14.366Z,16.79
2022-12-01T08:33:14.309Z,17.89
2022-12-01T08:34:14.250Z,15.80
2022-12-01T08:35:14.214Z,15.60
2022-12-01T08:36:14.132Z,15.60
2022-12-01T08:37:14.060Z,16.39
2022-12-01T08:38:13.991Z,16.79
2022-12-01T08:39:13.924Z,17.39
2022-12-01T08:40:13.878Z,17.70
2022-12-01T08:41:13.795Z,17.39
2022-12-01T08:42:13.724Z,17.89
2022-12-01T08:43:41.474Z,18.10
2022-12-01T08:44:14.666Z,17.10
2022-12-01T08:45:13.536Z,17.89
2022-12-01T08:46:13.575Z,18.50
2022-12-01T08:47:17.246Z,18.89
2022-12-01T08:48:13.357Z,17.89
2022-12-01T08:49:13.294Z,19.70
2022-12-01T08:50:13.231Z,22.00
2022-12-01T08:51:13.171Z,20.00
2022-12-01T08:52:13.106Z,20.70
2022-12-01T08:53:13.041Z,21.89
2022-12-01T08:54:12.977Z,20.89
2022-12-01T08:55:12.913Z,22.20
2022-12-01T08:56:12.851Z,22.00
2022-12-01T08:57:12.789Z,23.50
2022-12-01T08:58:12.723Z,22.10
2022-12-01T08:59:12.662Z,22.39
2022-12-01T09:00:12.625Z,21.29
2022-12-01T09:01:12.816Z,22.70
2022-12-01T09:02:12.531Z,22.60
2022-12-01T09:03:12.504Z,21.39
2022-12-01T09:04:12.342Z,23.10
2022-12-01T09:05:12.273Z,22.20
2022-12-01T09:06:12.206Z,23.20
2022-12-01T09:07:12.142Z,22.79
2022-12-01T09:08:12.149Z,22.39
2022-12-01T09:09:12.017Z,22.60
2022-12-01T09:10:11.951Z,23.50
2022-12-01T09:11:11.889Z,21.10
2022-12-01T09:12:11.815Z,21.60
2022-12-01T09:13:11.748Z,22.29
2022-12-01T09:14:11.682Z,22.29
2022-12-01T09:15:11.617Z,22.70
2022-12-01T09:16:11.649Z,21.79
2022-12-01T09:17:11.488Z,23.10
2022-12-01T09:18:11.416Z,22.29
2022-12-01T09:19:13.180Z,22.60
2022-12-01T09:20:11.277Z,22.10
2022-12-01T09:21:11.202Z,23.39
2022-12-01T09:22:11.137Z,21.89
2022-12-01T09:23:11.062Z,22.29
2022-12-01T09:24:10.991Z,21.50
2022-12-01T09:25:10.922Z,22.70
2022-12-01T09:26:13.577Z,23.29
2022-12-01T09:27:10.779Z,22.20
2022-12-01T09:28:10.701Z,22.89
2022-12-01T09:29:10.630Z,23.39
2022-12-01T09:30:10.548Z,24.60
2022-12-01T09:31:10.550Z,24.29
2022-12-01T09:32:10.428Z,22.89
2022-12-01T09:33:10.333Z,24.29
2022-12-01T09:34:10.259Z,23.50
2022-12-01T09:35:10.182Z,23.29
2022-12-01T09:36:10.109Z,22.29
2022-12-01T09:37:10.037Z,23.39
2022-12-01T09:38:09.962Z,24.29
2022-12-01T09:39:09.896Z,25.39
2022-12-01T09:40:09.823Z,24.29
2022-12-01T09:41:09.749Z,24.39
2022-12-01T09:42:09.679Z,23.70
2022-12-01T09:43:09.602Z,24.20
2022-12-01T09:44:09.523Z,25.50
2022-12-01T09:45:09.458Z,24.39
2022-12-01T09:46:09.374Z,24.60
2022-12-01T09:47:09.357Z,24.39
2022-12-01T09:48:09.244Z,24.70
2022-12-01T09:49:09.136Z,23.89
2022-12-01T09:50:09.066Z,24.89
2022-12-01T09:51:08.990Z,24.79
2022-12-01T09:52:08.916Z,26.10
2022-12-01T09:53:08.841Z,25.70
2022-12-01T09:54:08.773Z,25.39
2022-12-01T09:55:08.700Z,27.50
2022-12-01T09:56:12.795Z,25.39
2022-12-01T09:57:08.562Z,26.70
2022-12-01T09:58:08.498Z,26.10
2022-12-01T09:59:08.435Z,25.50
2022-12-01T10:00:08.372Z,25.70
2022-12-01T10:01:08.350Z,26.00
2022-12-01T10:02:08.307Z,25.10
2022-12-01T10:03:08.162Z,25.79
2022-12-01T10:04:08.119Z,25.60
2022-12-01T10:05:08.070Z,26.39
2022-12-01T10:06:26.570Z,27.10
2022-12-01T10:07:08.904Z,26.29
2022-12-01T10:08:07.896Z,26.20
2022-12-01T10:09:07.764Z,27.70
2022-12-01T10:10:07.691Z,27.60
2022-12-01T10:11:07.625Z,27.00
2022-12-01T10:12:07.561Z,28.39
2022-12-01T10:13:07.497Z,27.10
2022-12-01T10:14:07.434Z,28.89
2022-12-01T10:15:07.364Z,28.60
2022-12-01T10:16:07.335Z,29.00
2022-12-01T10:17:07.241Z,29.39
2022-12-01T10:18:07.164Z,28.70
2022-12-01T10:19:07.091Z,29.50
2022-12-01T10:20:07.047Z,28.50
2022-12-01T10:21:06.951Z,28.00
2022-12-01T10:22:06.881Z,27.10
2022-12-01T10:23:06.810Z,28.10
2022-12-01T10:24:06.739Z,28.10
2022-12-01T10:25:06.670Z,29.60
2022-12-01T10:26:06.597Z,28.39
2022-12-01T10:27:06.525Z,29.29
2022-12-01T10:28:06.455Z,29.50
2022-12-01T10:29:06.382Z,28.00
2022-12-01T10:30:06.311Z,26.79
2022-12-01T10:31:06.320Z,28.79
2022-12-01T10:32:06.168Z,29.10
2022-12-01T10:33:06.089Z,29.29
2022-12-01T10:34:06.030Z,30.00
2022-12-01T10:35:05.947Z,26.89
2022-12-01T10:36:05.904Z,28.50
2022-12-01T10:37:05.807Z,28.00
2022-12-01T10:38:05.779Z,28.50
2022-12-01T10:39:05.664Z,27.79
2022-12-01T10:40:05.585Z,28.50
2022-12-01T10:41:05.508Z,28.10
2022-12-01T10:42:05.427Z,29.39
2022-12-01T10:43:05.352Z,28.00
2022-12-01T10:44:05.280Z,28.60
2022-12-01T10:45:05.207Z,28.50
2022-12-01T10:46:05.257Z,28.20
2022-12-01T10:47:05.061Z,28.29
2022-12-01T10:48:04.988Z,28.89
2022-12-01T10:49:04.916Z,29.79
2022-12-01T10:50:04.837Z,29.00
2022-12-01T10:51:04.761Z,29.10
2022-12-01T10:52:04.713Z,28.60
2022-12-01T10:53:04.607Z,27.89
2022-12-01T10:54:04.536Z,28.60
2022-12-01T10:55:04.471Z,29.00
2022-12-01T10:56:04.385Z,28.89
2022-12-01T10:57:04.311Z,29.79
2022-12-01T10:58:09.058Z,27.50
2022-12-01T10:59:04.151Z,27.89
2022-12-01T11:00:04.090Z,28.60
2022-12-01T11:01:04.127Z,28.60
2022-12-01T11:02:04.073Z,29.50
2022-12-01T11:03:04.046Z,29.50
2022-12-01T11:04:03.751Z,28.89
2022-12-01T11:05:03.671Z,27.79
2022-12-01T11:06:03.588Z,29.29
2022-12-01T11:07:03.505Z,28.79
2022-12-01T11:08:03.513Z,28.50
2022-12-01T11:09:03.351Z,28.29
2022-12-01T11:10:03.271Z,27.29
2022-12-01T11:11:03.188Z,27.29
2022-12-01T11:12:03.107Z,27.60
2022-12-01T11:13:03.022Z,27.10
2022-12-01T11:14:02.942Z,26.00
2022-12-01T11:15:02.859Z,26.70
2022-12-01T11:16:02.816Z,27.20
2022-12-01T11:17:02.759Z,25.20
2022-12-01T11:18:02.622Z,27.50
2022-12-01T11:19:02.575Z,24.70
2022-12-01T11:20:02.502Z,25.29
2022-12-01T11:21:02.347Z,26.50
2022-12-01T11:22:02.265Z,28.29
2022-12-01T11:23:02.181Z,27.20
2022-12-01T11:24:02.121Z,26.89
2022-12-01T11:25:02.016Z,25.20
2022-12-01T11:26:01.925Z,26.70
2022-12-01T11:27:01.839Z,26.79
2022-12-01T11:28:01.753Z,26.60
2022-12-01T11:29:01.667Z,26.39
2022-12-01T11:30:01.634Z,26.00
2022-12-01T11:31:01.505Z,26.89
2022-12-01T11:32:01.473Z,26.20
2022-12-01T11:33:01.338Z,27.79
2022-12-01T11:34:01.256Z,26.50
2022-12-01T11:35:01.171Z,27.10
2022-12-01T11:36:01.101Z,26.70
2022-12-01T11:37:01.016Z,26.79
2022-12-01T11:38:28.358Z,27.29
2022-12-01T11:39:01.862Z,27.29
2022-12-01T11:40:00.788Z,27.89
2022-12-01T11:41:00.683Z,27.29
2022-12-01T11:42:00.604Z,26.29
2022-12-01T11:43:00.530Z,28.70
2022-12-01T11:44:01.964Z,27.60
2022-12-01T11:45:00.365Z,28.00
2022-12-01T11:46:00.361Z,27.39
2022-12-01T11:47:21.767Z,28.20
2022-12-01T11:48:01.135Z,27.79
2022-12-01T11:49:00.039Z,28.39
2022-12-01T11:49:59.959Z,28.20
2022-12-01T11:50:59.870Z,28.89
2022-12-01T11:51:59.788Z,30.89
2022-12-01T11:52:59.705Z,29.29
2022-12-01T11:53:59.623Z,29.89
2022-12-01T11:54:59.540Z,30.20
2022-12-01T11:55:59.483Z,29.79
2022-12-01T11:57:31.938Z,28.29
2022-12-01T11:58:00.296Z,29.60
2022-12-01T11:58:59.196Z,29.29
2022-12-01T11:59:59.121Z,29.79
2022-12-01T12:00:59.037Z,29.29
2022-12-01T12:01:59.021Z,28.50
2022-12-01T12:02:58.943Z,29.89
2022-12-01T12:03:58.800Z,30.50
2022-12-01T12:04:58.719Z,29.50
2022-12-01T12:06:17.866Z,27.89
2022-12-01T12:06:59.596Z,29.10
2022-12-01T12:07:58.510Z,29.79
2022-12-01T12:08:58.443Z,28.60
2022-12-01T12:09:58.322Z,27.79
2022-12-01T12:10:58.336Z,27.89
2022-12-01T12:11:58.183Z,30.29
2022-12-01T12:12:58.067Z,29.39
2022-12-01T12:13:57.990Z,26.89
2022-12-01T12:14:57.910Z,28.89
2022-12-01T12:15:57.833Z,28.10
2022-12-01T12:16:57.752Z,27.89
2022-12-01T12:17:57.738Z,26.89
2022-12-01T12:18:57.593Z,25.70
2022-12-01T12:20:07.672Z,26.70
2022-12-01T12:20:58.446Z,26.29
2022-12-01T12:21:57.360Z,26.70
2022-12-01T12:22:57.280Z,25.50
2022-12-01T12:23:57.209Z,27.60
2022-12-01T12:24:57.133Z,26.50
2022-12-01T12:25:57.047Z,25.89
2022-12-01T12:26:56.967Z,25.10
2022-12-01T12:27:56.917Z,25.60
2022-12-01T12:28:56.806Z,26.20
2022-12-01T12:29:56.726Z,28.00
2022-12-01T12:30:56.705Z,25.39
2022-12-01T12:31:56.571Z,27.10
2022-12-01T12:32:56.491Z,25.70
2022-12-01T12:33:56.411Z,27.60
2022-12-01T12:34:56.333Z,27.20
2022-12-01T12:35:56.253Z,27.29
2022-12-01T12:36:56.172Z,26.29
2022-12-01T12:37:56.093Z,26.20
2022-12-01T12:38:56.030Z,26.20
2022-12-01T12:39:55.935Z,25.70
2022-12-01T12:40:55.853Z,27.60
2022-12-01T12:41:55.779Z,26.89
2022-12-01T12:42:55.704Z,26.50
2022-12-01T12:43:55.627Z,27.50
2022-12-01T12:44:55.515Z,26.39
2022-12-01T12:45:55.535Z,25.79
2022-12-01T12:46:55.344Z,27.00
2022-12-01T12:47:55.257Z,25.70
2022-12-01T12:49:18.756Z,26.70
2022-12-01T12:49:56.114Z,25.70
2022-12-01T12:50:55.000Z,26.29
2022-12-01T12:51:54.922Z,26.00